createdAt,value
2019-02-18T00:01:03.958Z,1.17
2019-02-18T00:03:32.118Z,0.90
2019-02-18T00:06:00.290Z,1.10
2019-02-18T00:08:28.447Z,0.93
2019-02-18T00:10:56.505Z,1.80
2019-02-18T00:13:24.861Z,1.10
2019-02-18T00:15:52.944Z,1.07
2019-02-18T00:18:21.050Z,0.90
2019-02-18T00:20:49.107Z,1.00
2019-02-18T00:23:17.197Z,0.87
2019-02-18T00:25:45.261Z,1.00
2019-02-18T00:28:13.675Z,0.90
2019-02-18T00:30:41.740Z,0.90
2019-02-18T00:33:09.807Z,1.17
2019-02-18T00:35:43.506Z,1.10
2019-02-18T00:38:11.720Z,1.00
2019-02-18T00:40:41.073Z,1.00
2019-02-18T00:43:09.156Z,0.90
2019-02-18T00:45:37.228Z,1.20
2019-02-18T00:48:05.304Z,0.83
2019-02-18T00:50:33.378Z,1.27
2019-02-18T00:53:03.945Z,0.90
2019-02-18T00:55:31.521Z,0.90
2019-02-18T00:57:59.636Z,1.03
2019-02-18T01:00:27.682Z,1.00
2019-02-18T01:02:55.751Z,1.20
2019-02-18T01:05:24.046Z,1.07
2019-02-18T01:07:52.263Z,1.07
2019-02-18T01:10:20.325Z,1.10
2019-02-18T01:12:48.391Z,1.10
2019-02-18T01:15:16.460Z,1.17
2019-02-18T01:17:46.230Z,2.17
2019-02-18T01:20:14.607Z,1.23
2019-02-18T01:22:44.649Z,1.13
2019-02-18T01:25:12.934Z,0.97
2019-02-18T01:27:41.070Z,1.07
2019-02-18T01:30:12.747Z,1.03
2019-02-18T01:32:42.432Z,0.80
2019-02-18T01:35:12.535Z,0.80
2019-02-18T01:37:45.582Z,1.20
2019-02-18T01:40:12.705Z,1.20
2019-02-18T01:42:41.150Z,1.20
2019-02-18T01:45:11.114Z,0.93
2019-02-18T01:47:41.287Z,0.80
2019-02-18T01:50:12.688Z,1.00
2019-02-18T01:52:41.902Z,1.30
2019-02-18T01:55:11.575Z,1.03
2019-02-18T01:57:40.181Z,0.90
2019-02-18T02:00:14.415Z,1.00
2019-02-18T02:02:42.802Z,1.10
2019-02-18T02:05:13.540Z,1.20
2019-02-18T02:07:41.675Z,1.03
2019-02-18T02:10:11.616Z,1.00
2019-02-18T02:12:39.839Z,1.00
2019-02-18T02:15:13.577Z,1.10
2019-02-18T02:17:42.360Z,0.87
2019-02-18T02:20:12.795Z,1.17
2019-02-18T02:22:40.884Z,0.93
2019-02-18T02:25:09.089Z,1.10
2019-02-18T02:27:37.505Z,0.90
2019-02-18T02:30:06.951Z,1.07
2019-02-18T02:32:36.100Z,1.07
2019-02-18T02:35:04.406Z,1.13
2019-02-18T02:37:32.487Z,1.20
2019-02-18T02:40:00.724Z,0.90
2019-02-18T02:42:28.885Z,1.35
2019-02-18T02:44:57.046Z,1.17
2019-02-18T02:47:25.226Z,0.90
2019-02-18T02:49:53.672Z,1.20
2019-02-18T02:52:21.682Z,1.20
2019-02-18T02:54:49.887Z,1.33
2019-02-18T02:57:17.935Z,1.23
2019-02-18T02:59:45.986Z,1.20
2019-02-18T03:02:14.048Z,1.00
2019-02-18T03:05:05.387Z,1.10
2019-02-18T03:07:33.456Z,1.00
2019-02-18T03:10:01.550Z,0.93
2019-02-18T03:12:29.659Z,0.82
2019-02-18T03:14:57.739Z,1.10
2019-02-18T03:17:26.111Z,1.10
2019-02-18T03:19:54.203Z,1.20
2019-02-18T03:22:22.243Z,1.10
2019-02-18T03:25:22.698Z,1.20
2019-02-18T03:27:55.768Z,0.98
2019-02-18T03:30:54.177Z,1.12
2019-02-18T03:33:35.047Z,1.20
2019-02-18T03:36:03.095Z,1.10
2019-02-18T03:38:32.096Z,1.00
2019-02-18T03:41:03.389Z,0.70
2019-02-18T03:43:31.364Z,1.10
2019-02-18T03:45:59.472Z,0.78
2019-02-18T03:48:27.798Z,0.80
2019-02-18T03:50:55.870Z,0.93
2019-02-18T03:53:24.047Z,1.10
2019-02-18T03:55:52.122Z,0.78
2019-02-18T03:58:20.200Z,0.98
2019-02-18T04:00:48.581Z,0.93
2019-02-18T04:03:16.622Z,1.00
2019-02-18T04:05:44.734Z,1.20
2019-02-18T04:08:12.895Z,1.00
2019-02-18T04:10:41.195Z,0.80
2019-02-18T04:13:09.310Z,0.90
2019-02-18T04:15:37.518Z,1.80
2019-02-18T04:18:05.726Z,1.10
2019-02-18T04:20:33.792Z,1.27
2019-02-18T04:23:01.881Z,1.20
2019-02-18T04:25:29.900Z,0.90
2019-02-18T04:27:57.975Z,0.90
2019-02-18T04:30:26.029Z,0.80
2019-02-18T04:32:54.393Z,1.00
2019-02-18T04:35:22.842Z,0.90
2019-02-18T04:37:50.947Z,1.07
2019-02-18T04:40:19.116Z,1.00
2019-02-18T04:42:48.020Z,0.82
2019-02-18T04:45:16.285Z,1.20
2019-02-18T04:47:44.350Z,0.80
2019-02-18T04:50:12.593Z,0.85
2019-02-18T04:52:41.798Z,1.00
2019-02-18T04:55:10.075Z,1.00
2019-02-18T04:57:38.625Z,1.17
2019-02-18T05:00:08.513Z,1.30
2019-02-18T05:02:36.845Z,0.98
2019-02-18T05:05:06.493Z,0.80
2019-02-18T05:07:35.687Z,1.67
2019-02-18T05:10:04.509Z,0.90
2019-02-18T05:12:32.608Z,0.98
2019-02-18T05:15:02.024Z,0.95
2019-02-18T05:17:30.273Z,0.95
2019-02-18T05:19:58.472Z,0.90
2019-02-18T05:22:26.945Z,0.88
2019-02-18T05:24:55.068Z,0.90
2019-02-18T05:27:33.072Z,0.82
2019-02-18T05:29:53.168Z,0.95
2019-02-18T05:32:21.250Z,0.82
2019-02-18T05:34:49.339Z,0.80
2019-02-18T05:37:18.167Z,1.00
2019-02-18T05:39:46.532Z,1.37
2019-02-18T05:42:14.592Z,0.90
2019-02-18T05:44:42.663Z,0.90
2019-02-18T05:47:10.705Z,1.00
2019-02-18T05:49:40.202Z,1.15
2019-02-18T05:52:09.471Z,1.10
2019-02-18T05:54:37.532Z,0.72
2019-02-18T05:57:05.633Z,0.85
2019-02-18T05:59:33.702Z,0.80
2019-02-18T06:02:07.005Z,1.12
2019-02-18T06:04:35.051Z,1.20
2019-02-18T06:07:03.104Z,0.78
2019-02-18T06:09:31.284Z,1.20
2019-02-18T06:11:59.564Z,0.95
2019-02-18T06:14:27.675Z,1.00
2019-02-18T06:16:56.873Z,0.80
2019-02-18T06:19:24.969Z,1.05
2019-02-18T06:21:53.299Z,1.10
2019-02-18T06:24:22.479Z,0.90
2019-02-18T06:26:50.567Z,0.90
2019-02-18T06:29:18.700Z,1.00
2019-02-18T06:31:46.734Z,0.88
2019-02-18T06:34:14.829Z,0.80
2019-02-18T06:36:43.081Z,1.10
2019-02-18T06:39:11.170Z,1.07
2019-02-18T06:41:39.343Z,0.90
2019-02-18T06:44:07.412Z,1.20
2019-02-18T06:46:38.675Z,1.12
2019-02-18T06:49:15.444Z,1.10
2019-02-18T06:51:43.758Z,0.90
2019-02-18T06:54:11.804Z,1.10
2019-02-18T06:57:08.521Z,0.93
2019-02-18T06:59:46.444Z,0.75
2019-02-18T07:02:19.541Z,1.12
2019-02-18T07:05:25.882Z,0.90
2019-02-18T07:08:12.202Z,1.20
2019-02-18T07:10:55.224Z,1.10
2019-02-18T07:13:23.299Z,0.90
2019-02-18T07:15:51.348Z,0.95
2019-02-18T07:18:19.407Z,1.12
2019-02-18T07:20:47.809Z,0.80
2019-02-18T07:23:16.367Z,1.02
2019-02-18T07:25:44.418Z,0.93
2019-02-18T07:28:12.445Z,1.15
2019-02-18T07:30:40.904Z,0.90
2019-02-18T07:33:10.919Z,0.90
2019-02-18T07:35:39.000Z,0.98
2019-02-18T07:38:07.089Z,1.25
2019-02-18T07:40:35.102Z,1.10
2019-02-18T07:43:03.147Z,1.10
2019-02-18T07:45:31.209Z,1.30
2019-02-18T07:47:59.261Z,1.20
2019-02-18T07:50:27.286Z,1.10
2019-02-18T07:52:55.332Z,1.00
2019-02-18T07:55:23.578Z,1.20
2019-02-18T07:57:51.620Z,1.73
2019-02-18T08:00:19.985Z,2.73
2019-02-18T08:02:48.609Z,1.17
2019-02-18T08:05:16.668Z,1.30
2019-02-18T08:07:44.722Z,1.30
2019-02-18T08:10:12.773Z,1.60
2019-02-18T08:12:40.821Z,1.17
2019-02-18T08:15:09.371Z,1.20
2019-02-18T08:17:37.406Z,1.87
2019-02-18T08:20:06.890Z,1.30
2019-02-18T08:22:35.342Z,1.30
2019-02-18T08:25:03.776Z,2.00
2019-02-18T08:27:31.945Z,1.30
2019-02-18T08:29:59.978Z,1.33
2019-02-18T08:32:28.015Z,1.30
2019-02-18T08:34:56.088Z,1.47
2019-02-18T08:37:24.133Z,1.10
2019-02-18T08:39:52.590Z,1.17
2019-02-18T08:42:20.919Z,1.17
2019-02-18T08:44:49.824Z,2.20
2019-02-18T08:47:18.189Z,1.20
2019-02-18T08:49:46.253Z,1.20
2019-02-18T08:52:14.284Z,1.40
2019-02-18T08:54:42.413Z,1.67
2019-02-18T08:57:10.449Z,1.40
2019-02-18T08:59:38.537Z,2.07
2019-02-18T09:02:06.541Z,1.60
2019-02-18T09:04:34.616Z,1.37
2019-02-18T09:07:02.633Z,1.83
2019-02-18T09:09:30.774Z,1.33
2019-02-18T09:11:58.833Z,1.37
2019-02-18T09:14:27.214Z,1.43
2019-02-18T09:16:55.597Z,1.40
2019-02-18T09:19:23.669Z,1.40
2019-02-18T09:22:01.751Z,1.40
2019-02-18T09:24:39.605Z,2.97
2019-02-18T09:27:07.648Z,1.53
2019-02-18T09:29:35.699Z,1.50
2019-02-18T09:32:03.754Z,2.37
2019-02-18T09:34:33.002Z,1.50
2019-02-18T09:37:01.097Z,1.00
2019-02-18T09:39:31.467Z,1.43
2019-02-18T09:41:59.190Z,2.10
2019-02-18T09:44:27.251Z,1.37
2019-02-18T09:46:55.340Z,1.50
2019-02-18T09:49:23.422Z,1.40
2019-02-18T09:51:51.823Z,1.57
2019-02-18T09:54:19.911Z,2.00
2019-02-18T09:56:48.394Z,1.60
2019-02-18T09:59:17.727Z,1.90
2019-02-18T10:01:46.931Z,1.70
2019-02-18T10:04:14.988Z,1.47
2019-02-18T10:06:44.254Z,1.30
2019-02-18T10:09:12.431Z,1.40
2019-02-18T10:11:40.552Z,1.60
2019-02-18T10:14:08.791Z,1.33
2019-02-18T10:16:37.005Z,1.37
2019-02-18T10:19:05.125Z,1.83
2019-02-18T10:21:34.208Z,1.40
2019-02-18T10:24:02.384Z,1.77
2019-02-18T10:26:30.523Z,1.87
2019-02-18T10:28:58.888Z,2.00
2019-02-18T10:31:26.942Z,1.47
2019-02-18T10:33:55.035Z,1.70
2019-02-18T10:36:23.548Z,1.70
2019-02-18T10:38:52.555Z,2.83
2019-02-18T10:41:20.582Z,1.60
2019-02-18T10:43:49.011Z,1.70
2019-02-18T10:46:17.028Z,1.50
2019-02-18T10:48:45.773Z,1.67
2019-02-18T10:51:14.142Z,1.50
2019-02-18T10:53:42.196Z,1.50
2019-02-18T10:56:10.629Z,1.80
2019-02-18T10:58:38.706Z,2.97
2019-02-18T11:01:07.043Z,1.90
2019-02-18T11:03:35.552Z,2.13
2019-02-18T11:06:03.634Z,2.23
2019-02-18T11:08:31.827Z,1.60
2019-02-18T11:10:59.897Z,3.30
2019-02-18T11:13:28.007Z,1.80
2019-02-18T11:15:56.196Z,1.90
2019-02-18T11:18:24.351Z,1.97
2019-02-18T11:20:53.200Z,1.97
2019-02-18T11:23:21.282Z,1.50
2019-02-18T11:25:49.355Z,2.40
2019-02-18T11:28:17.417Z,1.70
2019-02-18T11:30:45.764Z,2.30
2019-02-18T11:33:14.674Z,1.90
2019-02-18T11:35:43.026Z,2.20
2019-02-18T11:38:11.493Z,1.50
2019-02-18T11:40:39.619Z,2.73
2019-02-18T11:43:08.965Z,2.00
2019-02-18T11:45:37.541Z,1.77
2019-02-18T11:48:05.587Z,1.90
2019-02-18T11:50:34.138Z,1.87
2019-02-18T11:53:04.237Z,1.80
2019-02-18T11:55:33.710Z,2.13
2019-02-18T11:58:01.884Z,3.73
2019-02-18T12:00:30.036Z,4.80
2019-02-18T12:03:03.163Z,1.93
2019-02-18T12:05:28.658Z,2.00
2019-02-18T12:07:58.475Z,1.67
2019-02-18T12:10:26.580Z,2.10
2019-02-18T12:12:55.900Z,2.40
2019-02-18T12:15:24.738Z,3.03
2019-02-18T12:17:53.929Z,2.67
2019-02-18T12:20:26.192Z,2.17
2019-02-18T12:22:54.322Z,2.03
2019-02-18T12:25:22.805Z,1.77
2019-02-18T12:27:51.308Z,1.83
2019-02-18T12:30:19.762Z,2.00
2019-02-18T12:32:48.547Z,3.50
2019-02-18T12:35:16.708Z,2.63
2019-02-18T12:37:54.706Z,2.40
2019-02-18T12:40:14.721Z,2.43
2019-02-18T12:42:42.979Z,2.27
2019-02-18T12:45:11.428Z,2.73
2019-02-18T12:47:39.478Z,2.70
2019-02-18T12:50:07.893Z,2.93
2019-02-18T12:52:35.948Z,3.17
2019-02-18T12:55:05.507Z,2.50
2019-02-18T12:57:33.970Z,2.53
2019-02-18T13:00:02.137Z,2.57
2019-02-18T13:02:30.288Z,2.90
2019-02-18T13:04:58.404Z,2.47
2019-02-18T13:07:26.790Z,2.47
2019-02-18T13:09:56.636Z,2.67
2019-02-18T13:12:24.709Z,2.40
2019-02-18T13:14:53.436Z,2.73
2019-02-18T13:17:22.955Z,2.50
2019-02-18T13:19:50.986Z,2.50
2019-02-18T13:22:19.026Z,2.50
2019-02-18T13:24:47.079Z,2.27
2019-02-18T13:27:15.111Z,2.40
2019-02-18T13:29:43.131Z,2.60
2019-02-18T13:32:11.549Z,2.70
2019-02-18T13:34:39.977Z,3.67
2019-02-18T13:37:11.333Z,2.37
2019-02-18T13:39:39.345Z,2.60
2019-02-18T13:42:07.931Z,3.60
2019-02-18T13:44:36.356Z,2.73
2019-02-18T13:47:04.588Z,2.53
2019-02-18T13:49:32.590Z,2.83
2019-02-18T13:52:00.687Z,2.83
2019-02-18T13:54:28.795Z,2.70
2019-02-18T13:56:56.849Z,3.57
2019-02-18T13:59:26.006Z,2.60
2019-02-18T14:01:54.107Z,2.47
2019-02-18T14:04:22.157Z,2.50
2019-02-18T14:06:50.527Z,2.70
2019-02-18T14:09:19.080Z,3.03
2019-02-18T14:11:47.266Z,3.00
2019-02-18T14:14:15.357Z,3.90
2019-02-18T14:16:43.467Z,3.47
2019-02-18T14:19:11.506Z,2.83
2019-02-18T14:21:39.966Z,4.03
2019-02-18T14:24:09.992Z,3.83
2019-02-18T14:26:38.099Z,3.13
2019-02-18T14:29:06.206Z,3.07
2019-02-18T14:31:35.614Z,3.60
2019-02-18T14:34:03.682Z,3.30
2019-02-18T14:36:32.261Z,3.73
2019-02-18T14:39:01.313Z,3.43
2019-02-18T14:41:31.080Z,3.07
2019-02-18T14:43:59.467Z,3.60
2019-02-18T14:46:27.505Z,3.03
2019-02-18T14:48:55.801Z,3.47
2019-02-18T14:51:23.838Z,3.20
2019-02-18T14:53:52.032Z,4.53
2019-02-18T14:56:21.709Z,3.43
2019-02-18T14:58:49.738Z,3.47
2019-02-18T15:01:17.959Z,4.50
2019-02-18T15:03:46.029Z,3.00
2019-02-18T15:06:14.125Z,3.43
2019-02-18T15:08:42.179Z,3.67
2019-02-18T15:11:10.642Z,3.03
2019-02-18T15:13:38.749Z,4.37
2019-02-18T15:16:06.820Z,6.03
2019-02-18T15:18:35.170Z,4.57
2019-02-18T15:21:03.353Z,3.93
2019-02-18T15:23:31.486Z,4.80
2019-02-18T15:25:59.539Z,4.33
2019-02-18T15:28:27.608Z,8.30
2019-02-18T15:30:56.170Z,7.10
2019-02-18T15:33:24.267Z,3.13
2019-02-18T15:35:52.309Z,4.30
2019-02-18T15:38:20.426Z,3.27
2019-02-18T15:40:48.622Z,3.63
2019-02-18T15:43:17.059Z,3.63
2019-02-18T15:45:46.231Z,3.40
2019-02-18T15:48:14.473Z,4.53
2019-02-18T15:50:42.539Z,3.53
2019-02-18T15:53:11.972Z,4.33
2019-02-18T15:55:41.924Z,3.67
2019-02-18T15:58:10.407Z,4.13
2019-02-18T16:00:38.560Z,3.10
2019-02-18T16:03:06.633Z,3.27
2019-02-18T16:05:34.736Z,3.67
2019-02-18T16:08:02.820Z,3.20
2019-02-18T16:10:31.002Z,3.60
2019-02-18T16:13:00.227Z,3.63
2019-02-18T16:15:28.845Z,2.97
2019-02-18T16:17:56.945Z,3.13
2019-02-18T16:20:24.936Z,3.27
2019-02-18T16:22:53.029Z,3.77
2019-02-18T16:25:22.514Z,4.03
2019-02-18T16:27:50.876Z,3.97
2019-02-18T16:30:18.942Z,3.57
2019-02-18T16:32:47.104Z,3.60
2019-02-18T16:35:15.512Z,4.13
2019-02-18T16:37:43.970Z,4.77
2019-02-18T16:40:14.504Z,4.57
2019-02-18T16:42:43.068Z,5.30
2019-02-18T16:45:13.541Z,4.97
2019-02-18T16:47:41.954Z,4.00
2019-02-18T16:50:10.291Z,4.90
2019-02-18T16:52:38.449Z,5.60
2019-02-18T16:55:08.545Z,4.97
2019-02-18T16:57:38.184Z,4.83
2019-02-18T17:00:18.920Z,4.67
2019-02-18T17:02:47.085Z,4.93
2019-02-18T17:05:15.242Z,5.97
2019-02-18T17:07:43.359Z,5.60
2019-02-18T17:10:11.433Z,5.50
2019-02-18T17:12:39.561Z,4.60
2019-02-18T17:15:09.159Z,7.00
2019-02-18T17:17:37.980Z,4.00
2019-02-18T17:20:06.582Z,5.80
2019-02-18T17:22:34.903Z,3.60
2019-02-18T17:25:02.979Z,3.20
2019-02-18T17:27:32.391Z,3.70
2019-02-18T17:30:00.811Z,3.23
2019-02-18T17:32:28.968Z,3.47
2019-02-18T17:34:57.582Z,5.47
2019-02-18T17:37:25.847Z,5.13
2019-02-18T17:39:53.875Z,4.23
2019-02-18T17:42:23.520Z,4.23
2019-02-18T17:44:51.757Z,3.90
2019-02-18T17:47:22.026Z,4.93
2019-02-18T17:49:50.185Z,3.40
2019-02-18T17:52:18.883Z,3.07
2019-02-18T17:54:46.931Z,2.57
2019-02-18T17:57:15.132Z,2.87
2019-02-18T17:59:43.334Z,2.50
2019-02-18T18:02:11.491Z,2.60
2019-02-18T18:04:40.287Z,2.40
2019-02-18T18:07:10.708Z,2.13
2019-02-18T18:09:38.806Z,2.30
2019-02-18T18:12:08.695Z,2.30
2019-02-18T18:14:36.859Z,2.10
2019-02-18T18:17:04.905Z,2.57
2019-02-18T18:19:33.117Z,2.30
2019-02-18T18:22:01.483Z,2.47
2019-02-18T18:24:30.821Z,2.77
2019-02-18T18:26:58.865Z,2.93
2019-02-18T18:29:26.987Z,2.77
2019-02-18T18:31:56.485Z,3.13
2019-02-18T18:34:26.051Z,2.73
2019-02-18T18:36:54.094Z,3.83
2019-02-18T18:39:22.295Z,3.33
2019-02-18T18:41:50.846Z,3.23
2019-02-18T18:44:20.230Z,3.40
2019-02-18T18:46:48.267Z,3.73
2019-02-18T18:49:16.834Z,4.37
2019-02-18T18:51:44.861Z,3.20
2019-02-18T18:54:13.184Z,3.03
2019-02-18T18:56:41.217Z,2.80
2019-02-18T18:59:09.455Z,3.03
2019-02-18T19:01:37.570Z,2.77
2019-02-18T19:04:05.887Z,5.93
2019-02-18T19:06:34.967Z,3.63
2019-02-18T19:09:03.890Z,3.80
2019-02-18T19:11:32.357Z,2.93
2019-02-18T19:14:00.809Z,3.20
2019-02-18T19:16:29.125Z,4.37
2019-02-18T19:18:57.920Z,2.83
2019-02-18T19:21:26.003Z,3.83
2019-02-18T19:23:54.469Z,2.77
2019-02-18T19:26:22.510Z,3.17
2019-02-18T19:28:50.708Z,3.07
2019-02-18T19:31:18.760Z,2.90
2019-02-18T19:33:46.872Z,2.90
2019-02-18T19:36:15.170Z,3.10
2019-02-18T19:38:43.248Z,3.23
2019-02-18T19:41:11.325Z,3.50
2019-02-18T19:43:39.397Z,3.20
2019-02-18T19:46:07.715Z,3.50
2019-02-18T19:48:35.780Z,3.43
2019-02-18T19:51:04.148Z,4.00
2019-02-18T19:53:32.210Z,3.40
2019-02-18T19:56:20.524Z,3.00
2019-02-18T19:58:49.618Z,4.10
2019-02-18T20:01:18.140Z,4.17
2019-02-18T20:03:46.268Z,3.23
2019-02-18T20:06:14.725Z,4.00
2019-02-18T20:08:42.937Z,4.23
2019-02-18T20:11:12.468Z,3.47
2019-02-18T20:13:40.753Z,3.30
2019-02-18T20:16:08.813Z,4.70
2019-02-18T20:18:39.086Z,3.30
2019-02-18T20:21:07.196Z,3.63
2019-02-18T20:23:35.416Z,3.63
2019-02-18T20:26:03.513Z,3.33
2019-02-18T20:28:31.679Z,4.53
2019-02-18T20:30:59.788Z,2.80
2019-02-18T20:33:28.471Z,3.83
2019-02-18T20:35:56.648Z,3.13
2019-02-18T20:38:24.741Z,4.10
2019-02-18T20:40:52.829Z,3.63
2019-02-18T20:43:21.469Z,3.17
2019-02-18T20:45:49.563Z,3.77
2019-02-18T20:48:17.603Z,3.57
2019-02-18T20:50:47.609Z,3.83
2019-02-18T20:53:16.181Z,3.57
2019-02-18T20:55:44.785Z,3.70
2019-02-18T20:58:12.899Z,3.37
2019-02-18T21:00:42.098Z,3.13
2019-02-18T21:03:10.132Z,3.23
2019-02-18T21:05:38.685Z,3.50
2019-02-18T21:08:06.730Z,3.67
2019-02-18T21:10:34.905Z,3.33
2019-02-18T21:13:03.214Z,3.87
2019-02-18T21:15:31.274Z,3.00
2019-02-18T21:17:59.572Z,2.77
2019-02-18T21:20:28.392Z,3.93
2019-02-18T21:22:57.601Z,2.77
2019-02-18T21:25:25.670Z,4.60
2019-02-18T21:27:53.887Z,2.90
2019-02-18T21:30:22.201Z,3.37
2019-02-18T21:32:50.263Z,3.37
2019-02-18T21:35:18.366Z,3.30
2019-02-18T21:37:46.404Z,3.03
2019-02-18T21:40:14.504Z,2.97
2019-02-18T21:42:42.579Z,3.83
2019-02-18T21:45:11.095Z,2.63
2019-02-18T21:47:39.353Z,3.57
2019-02-18T21:50:08.156Z,2.53
2019-02-18T21:52:36.556Z,3.33
2019-02-18T21:55:05.016Z,2.40
2019-02-18T21:57:33.049Z,3.53
2019-02-18T22:00:01.139Z,2.73
2019-02-18T22:02:29.195Z,3.03
2019-02-18T22:04:58.112Z,3.67
2019-02-18T22:07:26.196Z,2.37
2019-02-18T22:09:54.543Z,3.30
2019-02-18T22:12:22.600Z,2.67
2019-02-18T22:14:50.712Z,3.13
2019-02-18T22:17:18.766Z,3.23
2019-02-18T22:19:47.880Z,2.80
2019-02-18T22:22:15.968Z,2.80
2019-02-18T22:24:44.034Z,2.93
2019-02-18T22:27:12.792Z,2.83
2019-02-18T22:29:40.823Z,3.07
2019-02-18T22:32:08.888Z,3.33
2019-02-18T22:34:36.930Z,3.47
2019-02-18T22:37:05.494Z,3.87
2019-02-18T22:39:33.857Z,2.83
2019-02-18T22:42:01.926Z,3.23
2019-02-18T22:44:31.138Z,3.00
2019-02-18T22:47:01.588Z,2.67
2019-02-18T22:49:29.718Z,3.07
2019-02-18T22:51:57.767Z,3.20
2019-02-18T22:54:26.109Z,3.60
2019-02-18T22:56:54.165Z,2.43
2019-02-18T22:59:22.187Z,2.50
2019-02-18T23:01:50.423Z,2.80
2019-02-18T23:04:18.472Z,2.27
2019-02-18T23:06:46.556Z,2.73
2019-02-18T23:09:15.109Z,4.63
2019-02-18T23:11:43.164Z,2.50
2019-02-18T23:14:11.245Z,2.20
2019-02-18T23:16:40.887Z,2.80
2019-02-18T23:19:09.304Z,3.87
2019-02-18T23:21:37.367Z,3.07
2019-02-18T23:24:05.662Z,2.30
2019-02-18T23:26:33.707Z,2.60
2019-02-18T23:29:01.776Z,2.67
2019-02-18T23:31:30.111Z,3.07
2019-02-18T23:33:58.135Z,2.23
2019-02-18T23:36:26.200Z,2.30
2019-02-18T23:38:54.256Z,2.40
2019-02-18T23:41:22.367Z,2.57
2019-02-18T23:43:50.429Z,2.63
2019-02-18T23:46:18.476Z,2.47
2019-02-18T23:48:46.842Z,2.37
2019-02-18T23:51:14.915Z,2.33
2019-02-18T23:53:43.321Z,2.77
2019-02-18T23:56:12.570Z,2.30
2019-02-18T23:58:40.621Z,3.37
